sensor_id;sensor_type;location;lat;lon;timestamp;pressure;altitude;pressure_sealevel;temperature;humidity
41102;BME280;26845;50.190;19.178;2023-05-23T00:01:40;98421.49;;;13.31;60.63
41102;BME280;26845;50.190;19.178;2023-05-23T00:04:46;98414.75;;;13.27;60.69
41102;BME280;26845;50.190;19.178;2023-05-23T00:07:52;98415.94;;;13.23;60.82
41102;BME280;26845;50.190;19.178;2023-05-23T00:11:00;98410.84;;;13.19;60.94
41102;BME280;26845;50.190;19.178;2023-05-23T00:14:03;98413.80;;;13.13;61.12
41102;BME280;26845;50.190;19.178;2023-05-23T00:17:09;98410.65;;;13.07;61.11
41102;BME280;26845;50.190;19.178;2023-05-23T00:20:15;98407.59;;;13.07;61.39
41102;BME280;26845;50.190;19.178;2023-05-23T00:23:21;98408.11;;;13.10;61.58
41102;BME280;26845;50.190;19.178;2023-05-23T00:26:27;98404.80;;;13.07;61.31
41102;BME280;26845;50.190;19.178;2023-05-23T00:29:32;98404.98;;;12.98;61.41
41102;BME280;26845;50.190;19.178;2023-05-23T00:32:38;98401.96;;;12.92;61.69
41102;BME280;26845;50.190;19.178;2023-05-23T00:35:44;98402.05;;;12.86;61.76
41102;BME280;26845;50.190;19.178;2023-05-23T00:38:50;98400.80;;;12.80;61.96
41102;BME280;26845;50.190;19.178;2023-05-23T00:41:56;98403.71;;;12.71;62.14
41102;BME280;26845;50.190;19.178;2023-05-23T00:45:01;98395.80;;;12.61;62.47
41102;BME280;26845;50.190;19.178;2023-05-23T00:48:07;98398.59;;;12.51;62.50
41102;BME280;26845;50.190;19.178;2023-05-23T00:51:13;98401.42;;;12.37;62.61
41102;BME280;26845;50.190;19.178;2023-05-23T00:54:20;98403.51;;;12.22;62.65
41102;BME280;26845;50.190;19.178;2023-05-23T00:57:25;98398.61;;;12.01;62.83
41102;BME280;26845;50.190;19.178;2023-05-23T01:00:30;98400.01;;;11.81;63.08
41102;BME280;26845;50.190;19.178;2023-05-23T01:03:36;98400.49;;;11.66;63.11
41102;BME280;26845;50.190;19.178;2023-05-23T01:06:42;98400.19;;;11.57;63.24
41102;BME280;26845;50.190;19.178;2023-05-23T01:09:48;98399.40;;;11.52;63.44
41102;BME280;26845;50.190;19.178;2023-05-23T01:13:02;98396.38;;;11.47;63.79
41102;BME280;26845;50.190;19.178;2023-05-23T01:16:06;98397.39;;;11.45;63.93
41102;BME280;26845;50.190;19.178;2023-05-23T01:19:19;98400.02;;;11.55;64.41
41102;BME280;26845;50.190;19.178;2023-05-23T01:22:22;98398.80;;;11.53;64.07
41102;BME280;26845;50.190;19.178;2023-05-23T01:25:27;98397.94;;;11.51;64.36
41102;BME280;26845;50.190;19.178;2023-05-23T01:28:36;98394.34;;;11.46;64.37
41102;BME280;26845;50.190;19.178;2023-05-23T01:31:39;98396.98;;;11.43;64.25
41102;BME280;26845;50.190;19.178;2023-05-23T01:34:44;98395.92;;;11.35;64.45
41102;BME280;26845;50.190;19.178;2023-05-23T01:37:50;98395.11;;;11.31;64.89
41102;BME280;26845;50.190;19.178;2023-05-23T01:40:56;98389.99;;;11.36;65.28
41102;BME280;26845;50.190;19.178;2023-05-23T01:44:02;98385.67;;;11.34;65.09
41102;BME280;26845;50.190;19.178;2023-05-23T01:47:07;98390.30;;;11.19;65.13
41102;BME280;26845;50.190;19.178;2023-05-23T01:50:13;98391.29;;;11.07;65.47
41102;BME280;26845;50.190;19.178;2023-05-23T01:53:20;98392.71;;;10.99;65.48
41102;BME280;26845;50.190;19.178;2023-05-23T01:56:26;98392.75;;;10.93;65.41
41102;BME280;26845;50.190;19.178;2023-05-23T01:59:31;98391.30;;;10.84;65.50
41102;BME280;26845;50.190;19.178;2023-05-23T02:02:36;98390.36;;;10.79;65.63
41102;BME280;26845;50.190;19.178;2023-05-23T02:05:42;98390.49;;;10.78;65.83
41102;BME280;26845;50.190;19.178;2023-05-23T02:08:48;98387.41;;;10.75;65.85
41102;BME280;26845;50.190;19.178;2023-05-23T02:11:54;98390.40;;;10.71;65.91
41102;BME280;26845;50.190;19.178;2023-05-23T02:14:38;98388.34;;;10.66;65.68
41102;BME280;26845;50.190;19.178;2023-05-23T02:17:43;98385.23;;;10.43;65.75
41102;BME280;26845;50.190;19.178;2023-05-23T02:20:49;98382.40;;;10.35;66.21
41102;BME280;26845;50.190;19.178;2023-05-23T02:23:55;98383.55;;;10.34;66.20
41102;BME280;26845;50.190;19.178;2023-05-23T02:26:54;98387.95;;;10.28;66.06
41102;BME280;26845;50.190;19.178;2023-05-23T02:30:00;98385.91;;;10.19;66.21
41102;BME280;26845;50.190;19.178;2023-05-23T02:33:06;98390.52;;;10.12;66.23
41102;BME280;26845;50.190;19.178;2023-05-23T02:36:11;98394.27;;;10.08;66.32
41102;BME280;26845;50.190;19.178;2023-05-23T02:39:17;98395.80;;;10.03;66.50
41102;BME280;26845;50.190;19.178;2023-05-23T02:42:26;98392.98;;;10.01;66.55
41102;BME280;26845;50.190;19.178;2023-05-23T02:45:31;98392.83;;;9.99;66.57
41102;BME280;26845;50.190;19.178;2023-05-23T02:48:06;98391.08;;;9.98;66.64
41102;BME280;26845;50.190;19.178;2023-05-23T02:50:50;98384.09;;;9.96;66.82
41102;BME280;26845;50.190;19.178;2023-05-23T02:53:56;98385.05;;;9.95;66.97
41102;BME280;26845;50.190;19.178;2023-05-23T02:56:29;98381.70;;;9.97;67.04
41102;BME280;26845;50.190;19.178;2023-05-23T02:59:35;98380.17;;;9.97;67.10
41102;BME280;26845;50.190;19.178;2023-05-23T03:02:41;98377.59;;;9.96;67.04
41102;BME280;26845;50.190;19.178;2023-05-23T03:05:47;98376.14;;;9.92;67.13
41102;BME280;26845;50.190;19.178;2023-05-23T03:08:26;98373.77;;;9.89;67.23
41102;BME280;26845;50.190;19.178;2023-05-23T03:11:32;98375.06;;;9.87;67.23
41102;BME280;26845;50.190;19.178;2023-05-23T03:14:11;98377.36;;;9.84;67.24
41102;BME280;26845;50.190;19.178;2023-05-23T03:17:16;98376.84;;;9.82;67.39
41102;BME280;26845;50.190;19.178;2023-05-23T03:20:22;98375.10;;;9.77;67.30
41102;BME280;26845;50.190;19.178;2023-05-23T03:23:28;98376.58;;;9.75;67.57
41102;BME280;26845;50.190;19.178;2023-05-23T03:26:02;98374.44;;;9.78;67.83
41102;BME280;26845;50.190;19.178;2023-05-23T03:29:02;98372.16;;;9.80;67.94
41102;BME280;26845;50.190;19.178;2023-05-23T03:31:37;98368.64;;;9.81;68.04
41102;BME280;26845;50.190;19.178;2023-05-23T03:34:32;98365.15;;;9.84;68.23
41102;BME280;26845;50.190;19.178;2023-05-23T03:37:38;98360.58;;;9.83;68.28
41102;BME280;26845;50.190;19.178;2023-05-23T03:40:43;98356.78;;;9.80;68.32
41102;BME280;26845;50.190;19.178;2023-05-23T03:43:49;98365.69;;;9.77;68.39
41102;BME280;26845;50.190;19.178;2023-05-23T03:46:55;98364.90;;;9.76;68.32
41102;BME280;26845;50.190;19.178;2023-05-23T03:49:52;98369.58;;;9.69;68.59
41102;BME280;26845;50.190;19.178;2023-05-23T03:52:58;98367.77;;;9.68;68.80
41102;BME280;26845;50.190;19.178;2023-05-23T03:56:03;98364.00;;;9.71;69.02
41102;BME280;26845;50.190;19.178;2023-05-23T03:59:10;98366.91;;;9.73;69.11
41102;BME280;26845;50.190;19.178;2023-05-23T04:02:15;98360.91;;;9.77;69.36
41102;BME280;26845;50.190;19.178;2023-05-23T04:05:21;98360.45;;;9.82;69.40
41102;BME280;26845;50.190;19.178;2023-05-23T04:08:23;98358.91;;;9.89;69.52
41102;BME280;26845;50.190;19.178;2023-05-23T04:11:29;98352.25;;;9.97;69.62
41102;BME280;26845;50.190;19.178;2023-05-23T04:14:24;98354.83;;;10.01;69.74
41102;BME280;26845;50.190;19.178;2023-05-23T04:17:38;98355.38;;;10.09;69.86
41102;BME280;26845;50.190;19.178;2023-05-23T04:20:16;98359.13;;;10.18;70.05
41102;BME280;26845;50.190;19.178;2023-05-23T04:23:21;98352.34;;;10.29;70.25
41102;BME280;26845;50.190;19.178;2023-05-23T04:26:27;98351.38;;;10.42;70.58
41102;BME280;26845;50.190;19.178;2023-05-23T04:29:33;98356.25;;;10.60;70.79
41102;BME280;26845;50.190;19.178;2023-05-23T04:32:39;98354.54;;;10.77;71.01
41102;BME280;26845;50.190;19.178;2023-05-23T04:35:45;98351.02;;;10.96;71.17
41102;BME280;26845;50.190;19.178;2023-05-23T04:38:50;98354.39;;;11.15;71.30
41102;BME280;26845;50.190;19.178;2023-05-23T04:41:59;98348.46;;;11.33;71.32
41102;BME280;26845;50.190;19.178;2023-05-23T04:45:02;98346.64;;;11.48;71.22
41102;BME280;26845;50.190;19.178;2023-05-23T04:48:08;98345.39;;;11.62;71.48
41102;BME280;26845;50.190;19.178;2023-05-23T04:51:14;98344.23;;;11.82;71.76
41102;BME280;26845;50.190;19.178;2023-05-23T04:54:20;98342.83;;;11.96;71.71
41102;BME280;26845;50.190;19.178;2023-05-23T04:57:25;98333.19;;;12.42;72.79
41102;BME280;26845;50.190;19.178;2023-05-23T05:00:31;98334.00;;;12.70;71.85
41102;BME280;26845;50.190;19.178;2023-05-23T05:03:37;98329.42;;;12.85;71.73
41102;BME280;26845;50.190;19.178;2023-05-23T05:06:43;98330.05;;;12.98;71.74
41102;BME280;26845;50.190;19.178;2023-05-23T05:09:50;98334.94;;;13.15;71.79
41102;BME280;26845;50.190;19.178;2023-05-23T05:12:56;98325.98;;;13.24;71.70
41102;BME280;26845;50.190;19.178;2023-05-23T05:16:01;98329.27;;;13.41;71.89
41102;BME280;26845;50.190;19.178;2023-05-23T05:19:07;98328.89;;;13.61;71.28
41102;BME280;26845;50.190;19.178;2023-05-23T05:22:13;98327.75;;;13.85;71.13
41102;BME280;26845;50.190;19.178;2023-05-23T05:25:19;98323.14;;;14.14;72.41
41102;BME280;26845;50.190;19.178;2023-05-23T05:28:25;98317.84;;;14.57;71.89
41102;BME280;26845;50.190;19.178;2023-05-23T05:31:30;98315.40;;;14.96;71.67
41102;BME280;26845;50.190;19.178;2023-05-23T05:34:36;98316.10;;;15.24;70.48
41102;BME280;26845;50.190;19.178;2023-05-23T05:37:42;98318.50;;;15.40;70.01
41102;BME280;26845;50.190;19.178;2023-05-23T05:40:47;98318.52;;;15.49;69.65
41102;BME280;26845;50.190;19.178;2023-05-23T05:43:53;98312.66;;;15.62;69.81
41102;BME280;26845;50.190;19.178;2023-05-23T05:46:59;98315.54;;;15.74;69.10
41102;BME280;26845;50.190;19.178;2023-05-23T05:50:05;98319.23;;;15.87;68.71
41102;BME280;26845;50.190;19.178;2023-05-23T05:53:12;98310.73;;;16.01;68.56
41102;BME280;26845;50.190;19.178;2023-05-23T05:56:17;98310.43;;;16.12;68.22
41102;BME280;26845;50.190;19.178;2023-05-23T05:59:22;98315.21;;;16.22;68.40
41102;BME280;26845;50.190;19.178;2023-05-23T06:02:28;98314.11;;;16.37;67.86
41102;BME280;26845;50.190;19.178;2023-05-23T06:05:37;98314.42;;;16.51;67.88
41102;BME280;26845;50.190;19.178;2023-05-23T06:08:43;98308.73;;;16.64;67.40
41102;BME280;26845;50.190;19.178;2023-05-23T06:11:48;98307.98;;;16.80;67.52
41102;BME280;26845;50.190;19.178;2023-05-23T06:14:54;98304.25;;;17.02;67.30
41102;BME280;26845;50.190;19.178;2023-05-23T06:18:00;98301.15;;;17.21;66.89
41102;BME280;26845;50.190;19.178;2023-05-23T06:21:06;98303.63;;;17.53;67.21
41102;BME280;26845;50.190;19.178;2023-05-23T06:24:12;98294.91;;;17.73;66.71
41102;BME280;26845;50.190;19.178;2023-05-23T06:27:17;98290.94;;;17.85;66.19
41102;BME280;26845;50.190;19.178;2023-05-23T06:30:23;98297.23;;;17.92;65.79
41102;BME280;26845;50.190;19.178;2023-05-23T06:33:29;98293.92;;;18.07;65.93
41102;BME280;26845;50.190;19.178;2023-05-23T06:36:35;98290.64;;;18.24;65.61
41102;BME280;26845;50.190;19.178;2023-05-23T06:39:41;98285.48;;;18.47;65.68
41102;BME280;26845;50.190;19.178;2023-05-23T06:42:46;98288.44;;;18.69;65.45
41102;BME280;26845;50.190;19.178;2023-05-23T06:45:52;98284.13;;;18.86;64.22
41102;BME280;26845;50.190;19.178;2023-05-23T06:48:58;98283.92;;;18.82;64.17
41102;BME280;26845;50.190;19.178;2023-05-23T06:52:04;98277.52;;;18.91;63.99
41102;BME280;26845;50.190;19.178;2023-05-23T06:55:09;98275.29;;;19.09;64.23
41102;BME280;26845;50.190;19.178;2023-05-23T06:58:15;98276.89;;;19.41;64.23
41102;BME280;26845;50.190;19.178;2023-05-23T07:01:21;98270.86;;;19.67;63.47
41102;BME280;26845;50.190;19.178;2023-05-23T07:04:27;98268.92;;;19.87;63.01
41102;BME280;26845;50.190;19.178;2023-05-23T07:07:32;98268.75;;;20.09;62.55
41102;BME280;26845;50.190;19.178;2023-05-23T07:10:38;98265.77;;;20.09;61.77
41102;BME280;26845;50.190;19.178;2023-05-23T07:13:44;98266.08;;;20.20;61.62
41102;BME280;26845;50.190;19.178;2023-05-23T07:16:50;98265.59;;;20.21;61.38
41102;BME280;26845;50.190;19.178;2023-05-23T07:19:55;98265.52;;;20.38;61.08
41102;BME280;26845;50.190;19.178;2023-05-23T07:23:01;98267.96;;;20.42;61.26
41102;BME280;26845;50.190;19.178;2023-05-23T07:26:07;98259.29;;;20.61;61.01
41102;BME280;26845;50.190;19.178;2023-05-23T07:29:13;98258.65;;;20.89;61.04
41102;BME280;26845;50.190;19.178;2023-05-23T07:32:18;98260.34;;;21.20;61.05
41102;BME280;26845;50.190;19.178;2023-05-23T07:35:24;98254.10;;;21.56;60.54
41102;BME280;26845;50.190;19.178;2023-05-23T07:38:30;98255.95;;;21.83;59.42
41102;BME280;26845;50.190;19.178;2023-05-23T07:41:36;98255.39;;;21.84;59.00
41102;BME280;26845;50.190;19.178;2023-05-23T07:44:42;98260.48;;;21.75;58.89
41102;BME280;26845;50.190;19.178;2023-05-23T07:47:48;98252.86;;;22.01;59.90
41102;BME280;26845;50.190;19.178;2023-05-23T07:50:53;98255.55;;;22.37;59.33
41102;BME280;26845;50.190;19.178;2023-05-23T07:53:59;98252.66;;;22.56;58.10
41102;BME280;26845;50.190;19.178;2023-05-23T07:57:05;98245.40;;;22.63;57.85
41102;BME280;26845;50.190;19.178;2023-05-23T08:00:11;98245.50;;;22.65;56.93
41102;BME280;26845;50.190;19.178;2023-05-23T08:03:16;98244.15;;;22.59;56.93
41102;BME280;26845;50.190;19.178;2023-05-23T08:05:50;98241.27;;;22.83;57.65
41102;BME280;26845;50.190;19.178;2023-05-23T08:08:47;98233.68;;;23.01;57.29
41102;BME280;26845;50.190;19.178;2023-05-23T08:11:53;98229.82;;;23.23;57.34
41102;BME280;26845;50.190;19.178;2023-05-23T08:14:58;98227.30;;;23.46;56.68
41102;BME280;26845;50.190;19.178;2023-05-23T08:18:04;98227.77;;;23.67;56.35
41102;BME280;26845;50.190;19.178;2023-05-23T08:21:10;98229.06;;;23.95;55.38
41102;BME280;26845;50.190;19.178;2023-05-23T08:24:16;98227.16;;;24.07;55.14
41102;BME280;26845;50.190;19.178;2023-05-23T08:27:21;98232.29;;;24.29;54.80
41102;BME280;26845;50.190;19.178;2023-05-23T08:30:28;98233.01;;;24.46;53.93
41102;BME280;26845;50.190;19.178;2023-05-23T08:33:33;98228.61;;;24.47;53.74
41102;BME280;26845;50.190;19.178;2023-05-23T08:36:39;98228.67;;;24.41;52.93
41102;BME280;26845;50.190;19.178;2023-05-23T08:39:45;98232.58;;;24.17;52.94
41102;BME280;26845;50.190;19.178;2023-05-23T08:42:50;98229.55;;;24.20;53.57
41102;BME280;26845;50.190;19.178;2023-05-23T08:45:56;98225.13;;;24.53;53.64
41102;BME280;26845;50.190;19.178;2023-05-23T08:49:02;98226.10;;;24.91;52.52
41102;BME280;26845;50.190;19.178;2023-05-23T08:52:09;98211.23;;;25.15;52.39
41102;BME280;26845;50.190;19.178;2023-05-23T08:55:14;98217.27;;;25.36;52.24
41102;BME280;26845;50.190;19.178;2023-05-23T08:58:20;98220.25;;;25.51;51.44
41102;BME280;26845;50.190;19.178;2023-05-23T09:01:25;98218.92;;;25.43;51.47
41102;BME280;26845;50.190;19.178;2023-05-23T09:04:31;98219.59;;;25.43;50.16
41102;BME280;26845;50.190;19.178;2023-05-23T09:07:37;98219.66;;;25.33;49.73
41102;BME280;26845;50.190;19.178;2023-05-23T09:10:43;98218.98;;;25.49;49.01
41102;BME280;26845;50.190;19.178;2023-05-23T09:13:49;98218.04;;;25.42;49.57
41102;BME280;26845;50.190;19.178;2023-05-23T09:16:59;98218.94;;;25.63;49.55
41102;BME280;26845;50.190;19.178;2023-05-23T09:20:01;98216.55;;;25.85;48.37
41102;BME280;26845;50.190;19.178;2023-05-23T09:23:06;98210.38;;;25.98;47.88
41102;BME280;26845;50.190;19.178;2023-05-23T09:26:12;98213.28;;;26.12;48.08
41102;BME280;26845;50.190;19.178;2023-05-23T09:29:18;98206.66;;;26.39;47.93
41102;BME280;26845;50.190;19.178;2023-05-23T09:32:24;98200.98;;;26.67;48.22
41102;BME280;26845;50.190;19.178;2023-05-23T09:35:29;98205.16;;;26.95;47.23
41102;BME280;26845;50.190;19.178;2023-05-23T09:38:42;98211.69;;;27.13;46.59
41102;BME280;26845;50.190;19.178;2023-05-23T09:41:47;98201.54;;;27.18;45.11
41102;BME280;26845;50.190;19.178;2023-05-23T09:44:52;98196.02;;;27.06;46.09
41102;BME280;26845;50.190;19.178;2023-05-23T09:47:58;98199.19;;;27.39;45.47
41102;BME280;26845;50.190;19.178;2023-05-23T09:51:08;98195.30;;;27.61;44.43
41102;BME280;26845;50.190;19.178;2023-05-23T09:54:00;98198.15;;;27.67;43.90
41102;BME280;26845;50.190;19.178;2023-05-23T09:56:53;98197.21;;;27.39;41.16
41102;BME280;26845;50.190;19.178;2023-05-23T09:59:58;98197.14;;;26.78;41.75
41102;BME280;26845;50.190;19.178;2023-05-23T10:03:08;98193.56;;;26.78;42.78
41102;BME280;26845;50.190;19.178;2023-05-23T10:06:12;98193.65;;;27.03;43.14
41102;BME280;26845;50.190;19.178;2023-05-23T10:09:16;98187.61;;;27.22;42.01
41102;BME280;26845;50.190;19.178;2023-05-23T10:15:37;98185.05;;;27.66;42.80
41102;BME280;26845;50.190;19.178;2023-05-23T10:18:43;98177.48;;;28.00;43.04
41102;BME280;26845;50.190;19.178;2023-05-23T10:21:49;98178.09;;;28.43;42.69
41102;BME280;26845;50.190;19.178;2023-05-23T10:24:54;98175.13;;;28.83;42.31
41102;BME280;26845;50.190;19.178;2023-05-23T10:27:59;98178.04;;;29.00;41.30
41102;BME280;26845;50.190;19.178;2023-05-23T10:30:45;98171.86;;;28.83;41.13
41102;BME280;26845;50.190;19.178;2023-05-23T10:33:32;98170.29;;;28.70;40.25
41102;BME280;26845;50.190;19.178;2023-05-23T10:36:39;98160.38;;;28.68;40.51
41102;BME280;26845;50.190;19.178;2023-05-23T10:45:13;98157.16;;;28.93;39.57
41102;BME280;26845;50.190;19.178;2023-05-23T10:47:43;98157.71;;;29.18;39.72
41102;BME280;26845;50.190;19.178;2023-05-23T10:51:04;98157.23;;;29.57;39.83
41102;BME280;26845;50.190;19.178;2023-05-23T10:53:33;98155.23;;;29.90;39.56
41102;BME280;26845;50.190;19.178;2023-05-23T10:56:37;98146.78;;;30.06;39.48
41102;BME280;26845;50.190;19.178;2023-05-23T10:59:43;98148.42;;;30.11;38.33
41102;BME280;26845;50.190;19.178;2023-05-23T11:02:52;98143.67;;;30.22;39.16
41102;BME280;26845;50.190;19.178;2023-05-23T11:05:53;98149.79;;;30.32;36.88
41102;BME280;26845;50.190;19.178;2023-05-23T11:08:39;98147.02;;;29.95;36.79
41102;BME280;26845;50.190;19.178;2023-05-23T11:11:13;98140.41;;;29.71;37.18
41102;BME280;26845;50.190;19.178;2023-05-23T11:13:55;98145.09;;;29.75;37.46
41102;BME280;26845;50.190;19.178;2023-05-23T11:16:26;98136.08;;;29.71;37.22
41102;BME280;26845;50.190;19.178;2023-05-23T11:19:21;98131.77;;;29.60;36.89
41102;BME280;26845;50.190;19.178;2023-05-23T11:22:07;98127.73;;;29.49;35.86
41102;BME280;26845;50.190;19.178;2023-05-23T11:24:47;98127.54;;;29.11;36.75
41102;BME280;26845;50.190;19.178;2023-05-23T11:27:37;98123.84;;;29.16;35.73
41102;BME280;26845;50.190;19.178;2023-05-23T11:30:22;98113.84;;;28.68;34.47
41102;BME280;26845;50.190;19.178;2023-05-23T11:33:27;98108.30;;;28.06;35.15
41102;BME280;26845;50.190;19.178;2023-05-23T11:36:33;98108.00;;;27.99;36.25
41102;BME280;26845;50.190;19.178;2023-05-23T11:39:38;98104.67;;;28.26;37.10
41102;BME280;26845;50.190;19.178;2023-05-23T11:42:44;98101.77;;;28.64;36.76
41102;BME280;26845;50.190;19.178;2023-05-23T11:45:30;98100.23;;;29.05;36.76
41102;BME280;26845;50.190;19.178;2023-05-23T11:48:16;98098.15;;;29.43;36.30
41102;BME280;26845;50.190;19.178;2023-05-23T11:51:21;98101.45;;;29.50;34.58
41102;BME280;26845;50.190;19.178;2023-05-23T11:54:03;98101.90;;;29.10;35.62
41102;BME280;26845;50.190;19.178;2023-05-23T11:56:51;98095.77;;;28.99;35.79
41102;BME280;26845;50.190;19.178;2023-05-23T11:59:36;98094.19;;;28.89;35.32
41102;BME280;26845;50.190;19.178;2023-05-23T12:02:42;98099.52;;;28.79;34.91
41102;BME280;26845;50.190;19.178;2023-05-23T12:05:19;98098.71;;;28.81;36.12
41102;BME280;26845;50.190;19.178;2023-05-23T12:08:24;98095.38;;;28.65;35.12
41102;BME280;26845;50.190;19.178;2023-05-23T12:11:10;98096.38;;;28.64;35.53
41102;BME280;26845;50.190;19.178;2023-05-23T12:14:15;98098.27;;;28.39;35.04
41102;BME280;26845;50.190;19.178;2023-05-23T12:17:20;98099.45;;;28.13;35.68
41102;BME280;26845;50.190;19.178;2023-05-23T12:20:26;98094.74;;;28.03;35.80
41102;BME280;26845;50.190;19.178;2023-05-23T12:23:32;98093.48;;;28.11;35.85
41102;BME280;26845;50.190;19.178;2023-05-23T12:26:57;98086.22;;;28.02;35.48
41102;BME280;26845;50.190;19.178;2023-05-23T12:30:06;98075.95;;;27.54;35.80
41102;BME280;26845;50.190;19.178;2023-05-23T12:33:11;98077.16;;;27.15;36.04
41102;BME280;26845;50.190;19.178;2023-05-23T12:36:20;98077.92;;;26.98;36.30
41102;BME280;26845;50.190;19.178;2023-05-23T12:39:29;98080.19;;;26.92;36.81
41102;BME280;26845;50.190;19.178;2023-05-23T12:42:23;98084.06;;;26.83;37.29
41102;BME280;26845;50.190;19.178;2023-05-23T12:45:13;98098.89;;;26.76;37.37
41102;BME280;26845;50.190;19.178;2023-05-23T12:47:39;98116.50;;;26.30;37.16
41102;BME280;26845;50.190;19.178;2023-05-23T12:50:05;98128.80;;;25.57;38.21
41102;BME280;26845;50.190;19.178;2023-05-23T12:52:32;98136.55;;;24.89;39.33
41102;BME280;26845;50.190;19.178;2023-05-23T12:55:00;98129.02;;;24.09;40.36
41102;BME280;26845;50.190;19.178;2023-05-23T12:57:26;98134.92;;;23.46;42.10
41102;BME280;26845;50.190;19.178;2023-05-23T12:59:53;98145.73;;;22.89;45.09
41102;BME280;26845;50.190;19.178;2023-05-23T13:02:23;98145.13;;;22.21;46.32
41102;BME280;26845;50.190;19.178;2023-05-23T13:04:53;98149.06;;;21.71;46.55
41102;BME280;26845;50.190;19.178;2023-05-23T13:07:58;98150.95;;;21.33;47.94
41102;BME280;26845;50.190;19.178;2023-05-23T13:10:28;98156.04;;;21.10;47.24
41102;BME280;26845;50.190;19.178;2023-05-23T13:13:13;98155.47;;;21.11;48.41
41102;BME280;26845;50.190;19.178;2023-05-23T13:15:40;98151.20;;;21.11;48.28
41102;BME280;26845;50.190;19.178;2023-05-23T13:18:40;98149.98;;;21.08;48.93
41102;BME280;26845;50.190;19.178;2023-05-23T13:21:45;98142.23;;;21.13;49.37
41102;BME280;26845;50.190;19.178;2023-05-23T13:24:11;98145.62;;;21.33;50.08
41102;BME280;26845;50.190;19.178;2023-05-23T13:27:00;98143.75;;;21.66;50.32
41102;BME280;26845;50.190;19.178;2023-05-23T13:29:27;98142.15;;;21.89;50.69
41102;BME280;26845;50.190;19.178;2023-05-23T13:32:13;98146.98;;;21.98;51.18
41102;BME280;26845;50.190;19.178;2023-05-23T13:34:54;98151.77;;;21.88;51.55
41102;BME280;26845;50.190;19.178;2023-05-23T13:37:40;98152.60;;;21.81;51.33
41102;BME280;26845;50.190;19.178;2023-05-23T13:40:45;98147.92;;;21.77;51.70
41102;BME280;26845;50.190;19.178;2023-05-23T13:43:47;98145.83;;;21.72;52.15
41102;BME280;26845;50.190;19.178;2023-05-23T13:46:53;98147.60;;;21.78;52.54
41102;BME280;26845;50.190;19.178;2023-05-23T13:49:57;98152.98;;;21.86;52.71
41102;BME280;26845;50.190;19.178;2023-05-23T13:53:03;98153.69;;;21.98;52.66
41102;BME280;26845;50.190;19.178;2023-05-23T13:55:32;98156.59;;;22.00;52.54
41102;BME280;26845;50.190;19.178;2023-05-23T13:58:21;98160.79;;;22.00;52.60
41102;BME280;26845;50.190;19.178;2023-05-23T14:01:29;98160.48;;;21.98;52.82
41102;BME280;26845;50.190;19.178;2023-05-23T14:04:31;98162.02;;;21.96;53.25
41102;BME280;26845;50.190;19.178;2023-05-23T14:07:04;98168.02;;;21.91;54.24
41102;BME280;26845;50.190;19.178;2023-05-23T14:10:10;98167.25;;;21.72;54.85
41102;BME280;26845;50.190;19.178;2023-05-23T14:13:15;98167.84;;;21.59;54.90
41102;BME280;26845;50.190;19.178;2023-05-23T14:16:20;98165.98;;;21.51;55.10
41102;BME280;26845;50.190;19.178;2023-05-23T14:19:26;98171.06;;;21.56;56.19
41102;BME280;26845;50.190;19.178;2023-05-23T14:22:32;98177.20;;;21.57;56.42
41102;BME280;26845;50.190;19.178;2023-05-23T14:25:37;98179.56;;;21.53;55.86
41102;BME280;26845;50.190;19.178;2023-05-23T14:28:43;98178.75;;;21.53;56.05
41102;BME280;26845;50.190;19.178;2023-05-23T14:31:48;98172.77;;;21.56;56.49
41102;BME280;26845;50.190;19.178;2023-05-23T14:34:25;98178.02;;;21.57;56.65
41102;BME280;26845;50.190;19.178;2023-05-23T14:37:30;98175.60;;;21.44;56.41
41102;BME280;26845;50.190;19.178;2023-05-23T14:40:16;98174.63;;;21.37;56.97
41102;BME280;26845;50.190;19.178;2023-05-23T14:43:21;98168.00;;;21.40;56.91
41102;BME280;26845;50.190;19.178;2023-05-23T14:46:27;98162.69;;;21.46;57.18
41102;BME280;26845;50.190;19.178;2023-05-23T14:49:32;98160.41;;;21.55;57.69
41102;BME280;26845;50.190;19.178;2023-05-23T14:52:37;98169.77;;;21.58;57.57
41102;BME280;26845;50.190;19.178;2023-05-23T14:55:43;98173.82;;;21.50;57.48
41102;BME280;26845;50.190;19.178;2023-05-23T14:58:48;98175.19;;;21.33;57.53
41102;BME280;26845;50.190;19.178;2023-05-23T15:01:37;98170.11;;;21.35;57.94
41102;BME280;26845;50.190;19.178;2023-05-23T15:04:43;98158.95;;;21.49;58.47
41102;BME280;26845;50.190;19.178;2023-05-23T15:07:48;98155.31;;;21.61;59.42
41102;BME280;26845;50.190;19.178;2023-05-23T15:10:35;98151.73;;;21.70;59.59
41102;BME280;26845;50.190;19.178;2023-05-23T15:13:40;98146.48;;;21.71;59.97
41102;BME280;26845;50.190;19.178;2023-05-23T15:16:31;98146.06;;;21.75;60.78
41102;BME280;26845;50.190;19.178;2023-05-23T15:19:37;98142.76;;;21.75;60.93
41102;BME280;26845;50.190;19.178;2023-05-23T15:22:44;98149.89;;;21.66;61.02
41102;BME280;26845;50.190;19.178;2023-05-23T15:25:52;98144.98;;;21.54;61.29
41102;BME280;26845;50.190;19.178;2023-05-23T15:28:50;98150.89;;;21.47;61.29
41102;BME280;26845;50.190;19.178;2023-05-23T15:31:47;98147.91;;;21.49;61.81
41102;BME280;26845;50.190;19.178;2023-05-23T15:34:53;98150.96;;;21.45;62.16
41102;BME280;26845;50.190;19.178;2023-05-23T15:37:58;98150.00;;;21.42;62.62
41102;BME280;26845;50.190;19.178;2023-05-23T15:41:04;98144.77;;;21.43;62.96
41102;BME280;26845;50.190;19.178;2023-05-23T15:44:12;98142.80;;;21.37;63.64
41102;BME280;26845;50.190;19.178;2023-05-23T15:47:18;98140.94;;;21.36;63.76
41102;BME280;26845;50.190;19.178;2023-05-23T15:50:23;98147.33;;;21.38;64.14
41102;BME280;26845;50.190;19.178;2023-05-23T15:53:30;98145.80;;;21.36;64.50